logo
Search for airport 
image banner adimage banner adimage banner ad
image banner ad

CYHZ - Stanfield Intl

Located in Halifax, Canada

ICAO - CYHZ, IATA - YHZ

Data provided by Airmate  

General information

Coordinates: N44°52'47" W63°30'37"
Elevation is 477 feet MSL.
Magnetic variation is -18.1167° East
View others Airports in Nova Scotia

Operational data

Special qualification required
Current time UTC:
Current local time:
Weather
METAR: CYHZ 230400Z 31005KT 15SM SKC 01/M07 A3010 RMK SLP200
TAF: TAF CYHZ 230241Z 2303/2324 28008KT P6SM SKC BECMG 2304/2306 VRB03KT FM231200 14008KT P6SM SKC FM231500 17012KT P6SM FEW025 FM232300 15008KT P6SM FEW015 RMK NXT FCST BY 230600Z
View NOTAMs / SUP AIP / TFR affecting this airport [VIEW]
Communications frequencies: [VIEW]

Runways:

RWY identifierQFULength (ft)Width (ft)SurfaceLDA (ft)
14125°7700200ASPH7700
32305°7700200ASPH7700
0535°10500200CONC+ASPH10500
23215°10500200CONC+ASPH10139

Airport contact information

Address: Halifax Canada

Other aviation service providers

Flight schools

Fly Jazz

Fly Jazz
media@voljazz.ca+19028735000

Satellite view of CYHZ